createdAt,value
2022-12-16T00:01:19.342Z,97536.97
2022-12-16T00:03:52.003Z,97547.41
2022-12-16T00:06:20.245Z,97545.03
2022-12-16T00:08:47.104Z,97544.50
2022-12-16T00:11:14.645Z,97543.66
2022-12-16T00:13:41.403Z,97487.78
2022-12-16T00:16:11.475Z,97553.28
2022-12-16T00:18:38.934Z,97550.16
2022-12-16T00:21:06.701Z,97526.03
2022-12-16T00:23:35.320Z,97547.03
2022-12-16T00:26:02.723Z,97554.41
2022-12-16T00:28:29.351Z,97542.63
2022-12-16T00:30:56.993Z,97551.06
2022-12-16T00:33:25.736Z,97550.31
2022-12-16T00:35:53.167Z,97553.00
2022-12-16T00:38:20.977Z,97548.84
2022-12-16T00:40:48.154Z,97551.22
2022-12-16T00:43:14.773Z,97558.47
2022-12-16T00:45:41.453Z,97517.53
2022-12-16T00:48:08.776Z,97548.22
2022-12-16T00:50:36.167Z,97529.38
2022-12-16T00:53:03.808Z,97545.22
2022-12-16T00:55:31.466Z,97552.25
2022-12-16T00:57:58.924Z,97532.06
2022-12-16T01:00:25.590Z,97542.09
2022-12-16T01:02:53.722Z,97515.06
2022-12-16T01:05:22.836Z,97543.78
2022-12-16T01:07:49.523Z,97511.81
2022-12-16T01:10:18.705Z,97532.28
2022-12-16T01:12:45.600Z,97518.75
2022-12-16T01:15:12.590Z,97544.00
2022-12-16T01:17:39.764Z,97534.94
2022-12-16T01:20:07.672Z,97542.41
2022-12-16T01:22:35.344Z,97451.53
2022-12-16T01:25:02.523Z,97475.38
2022-12-16T01:27:29.341Z,97536.84
2022-12-16T01:29:56.247Z,97520.34
2022-12-16T01:32:23.243Z,97546.38
2022-12-16T01:34:55.087Z,97546.53
2022-12-16T01:37:23.450Z,97543.44
2022-12-16T01:39:50.371Z,97539.59
2022-12-16T01:42:20.482Z,97547.06
2022-12-16T01:44:49.159Z,97548.19
2022-12-16T01:47:28.137Z,97538.75
2022-12-16T01:50:04.345Z,97551.09
2022-12-16T01:52:35.393Z,97540.97
2022-12-16T01:55:25.687Z,97549.28
2022-12-16T01:57:59.566Z,97537.50
2022-12-16T02:00:26.333Z,97549.63
2022-12-16T02:02:53.876Z,97550.19
2022-12-16T02:05:21.644Z,97550.44
2022-12-16T02:08:06.495Z,97555.03
2022-12-16T02:10:41.968Z,97555.41
2022-12-16T02:13:23.607Z,97553.28
2022-12-16T02:16:12.723Z,97552.19
2022-12-16T02:18:49.822Z,97553.84
2022-12-16T02:21:27.547Z,97547.91
2022-12-16T02:24:26.383Z,97547.28
2022-12-16T02:27:10.321Z,97549.94
2022-12-16T02:29:36.933Z,97560.19
2022-12-16T02:32:09.277Z,97560.34
2022-12-16T02:34:51.055Z,97561.25
2022-12-16T02:37:37.627Z,97540.53
2022-12-16T02:40:14.782Z,97559.22
2022-12-16T02:42:47.605Z,97548.53
2022-12-16T02:45:23.238Z,97555.22
2022-12-16T02:47:49.964Z,97553.66
2022-12-16T02:50:35.027Z,97565.53
2022-12-16T02:53:02.907Z,97563.63
2022-12-16T02:56:14.459Z,97559.34
2022-12-16T02:59:02.290Z,97557.44
2022-12-16T03:02:00.914Z,97558.94
2022-12-16T03:04:39.457Z,97556.31
2022-12-16T03:07:09.875Z,97532.66
2022-12-16T03:09:39.181Z,97559.53
2022-12-16T03:12:12.004Z,97564.72
2022-12-16T03:14:42.237Z,97561.91
2022-12-16T03:17:09.926Z,97560.34
2022-12-16T03:19:40.614Z,97571.88
2022-12-16T03:22:18.735Z,97573.59
2022-12-16T03:24:45.966Z,97557.88
2022-12-16T03:27:20.726Z,97574.44
2022-12-16T03:29:58.359Z,97570.75
2022-12-16T03:32:53.968Z,97576.13
2022-12-16T03:35:29.125Z,97558.59
2022-12-16T03:37:58.686Z,97554.00
2022-12-16T03:40:28.206Z,97571.09
2022-12-16T03:42:56.923Z,97581.97
2022-12-16T03:45:27.778Z,97577.22
2022-12-16T03:47:57.820Z,97576.66
2022-12-16T03:50:29.629Z,97583.81
2022-12-16T03:52:56.523Z,97538.38
2022-12-16T03:55:23.744Z,97574.47
2022-12-16T03:57:50.755Z,97580.16
2022-12-16T04:00:17.676Z,97582.50
2022-12-16T04:02:44.830Z,97584.25
2022-12-16T04:05:11.618Z,97588.34
2022-12-16T04:07:38.500Z,97586.38
2022-12-16T04:10:06.856Z,97587.72
2022-12-16T04:12:33.776Z,97569.00
2022-12-16T04:15:00.431Z,97594.22
2022-12-16T04:17:27.295Z,97603.19
2022-12-16T04:19:55.176Z,97596.41
2022-12-16T04:22:33.560Z,97592.06
2022-12-16T04:25:10.651Z,97590.41
2022-12-16T04:27:37.404Z,97594.75
2022-12-16T04:30:05.369Z,97590.56
2022-12-16T04:32:32.453Z,97594.31
2022-12-16T04:34:59.278Z,97604.19
2022-12-16T04:37:25.996Z,97591.66
2022-12-16T04:39:52.560Z,97597.38
2022-12-16T04:42:19.202Z,97606.56
2022-12-16T04:44:45.871Z,97613.22
2022-12-16T04:47:12.615Z,97607.03
2022-12-16T04:49:39.247Z,97621.84
2022-12-16T04:52:05.895Z,97610.16
2022-12-16T04:54:32.476Z,97626.34
2022-12-16T04:56:59.195Z,97612.81
2022-12-16T04:59:25.794Z,97636.31
2022-12-16T05:01:52.748Z,97639.25
2022-12-16T05:04:19.463Z,97634.50
2022-12-16T05:06:46.151Z,97646.38
2022-12-16T05:09:12.731Z,97647.25
2022-12-16T05:11:39.498Z,97653.47
2022-12-16T05:14:06.115Z,97654.59
2022-12-16T05:16:32.849Z,97636.34
2022-12-16T05:18:59.627Z,97640.81
2022-12-16T05:21:26.311Z,97641.38
2022-12-16T05:23:52.961Z,97651.03
2022-12-16T05:26:19.683Z,97643.84
2022-12-16T05:28:46.268Z,97629.50
2022-12-16T05:31:13.026Z,97656.44
2022-12-16T05:33:39.796Z,97647.06
2022-12-16T05:36:06.711Z,97648.31
2022-12-16T05:38:33.364Z,97654.72
2022-12-16T05:41:00.129Z,97652.25
2022-12-16T05:43:26.713Z,97657.78
2022-12-16T05:45:53.463Z,97627.75
2022-12-16T05:48:20.143Z,97661.75
2022-12-16T05:50:46.826Z,97665.22
2022-12-16T05:53:13.402Z,97668.25
2022-12-16T05:55:41.619Z,97676.78
2022-12-16T05:58:08.713Z,97685.22
2022-12-16T06:00:36.336Z,97684.59
2022-12-16T06:03:03.096Z,97667.72
2022-12-16T06:05:29.921Z,97689.53
2022-12-16T06:07:56.511Z,97689.72
2022-12-16T06:10:23.348Z,97689.09
2022-12-16T06:12:49.914Z,97690.66
2022-12-16T06:15:16.676Z,97700.31
2022-12-16T06:17:49.988Z,97703.09
2022-12-16T06:20:17.019Z,97697.13
2022-12-16T06:22:43.604Z,97681.31
2022-12-16T06:25:10.331Z,97718.72
2022-12-16T06:27:36.887Z,97717.16
2022-12-16T06:30:05.356Z,97663.91
2022-12-16T06:32:31.997Z,97735.97
2022-12-16T06:34:58.645Z,97729.63
2022-12-16T06:37:25.240Z,97718.53
2022-12-16T06:39:53.232Z,97738.75
2022-12-16T06:42:20.144Z,97728.81
2022-12-16T06:44:46.778Z,97749.16
2022-12-16T06:47:13.421Z,97734.34
2022-12-16T06:49:40.150Z,97750.25
2022-12-16T06:52:06.750Z,97758.19
2022-12-16T06:54:33.476Z,97761.66
2022-12-16T06:57:00.122Z,97754.25
2022-12-16T06:59:26.780Z,97741.53
2022-12-16T07:01:53.606Z,97770.34
2022-12-16T07:04:20.312Z,97770.81
2022-12-16T07:06:46.912Z,97785.22
2022-12-16T07:09:13.827Z,97784.69
2022-12-16T07:11:40.434Z,97792.53
2022-12-16T07:14:07.118Z,97796.91
2022-12-16T07:16:33.854Z,97794.34
2022-12-16T07:19:00.643Z,97801.13
2022-12-16T07:21:27.416Z,97791.66
2022-12-16T07:23:54.158Z,97796.41
2022-12-16T07:26:21.152Z,97812.31
2022-12-16T07:28:47.863Z,97806.03
2022-12-16T07:31:14.637Z,97827.56
2022-12-16T07:33:41.346Z,97818.09
2022-12-16T07:36:08.337Z,97814.50
2022-12-16T07:38:35.052Z,97828.03
2022-12-16T07:41:02.591Z,97760.53
2022-12-16T07:43:29.353Z,97823.16
2022-12-16T07:45:56.237Z,97814.06
2022-12-16T07:48:22.970Z,97836.19
2022-12-16T07:50:49.551Z,97837.28
2022-12-16T07:53:16.262Z,97829.56
2022-12-16T07:55:42.964Z,97846.81
2022-12-16T07:58:10.270Z,97799.88
2022-12-16T08:00:37.402Z,97822.59
2022-12-16T08:03:04.572Z,97852.09
2022-12-16T08:05:31.312Z,97861.25
2022-12-16T08:07:58.103Z,97862.69
2022-12-16T08:10:24.774Z,97834.97
2022-12-16T08:12:51.397Z,97865.13
2022-12-16T08:15:18.055Z,97847.75
2022-12-16T08:17:52.485Z,97824.03
2022-12-16T08:20:19.375Z,97868.00
2022-12-16T08:22:45.958Z,97881.41
2022-12-16T08:25:12.672Z,97869.84
2022-12-16T08:27:39.301Z,97878.47
2022-12-16T08:30:06.804Z,97874.41
2022-12-16T08:32:33.376Z,97880.63
2022-12-16T08:35:00.794Z,97889.69
2022-12-16T08:37:27.464Z,97882.63
2022-12-16T08:40:11.090Z,97893.63
2022-12-16T08:42:40.831Z,97894.09
2022-12-16T08:45:07.653Z,97896.13
2022-12-16T08:47:34.359Z,97876.78
2022-12-16T08:50:02.214Z,97889.75
2022-12-16T08:52:30.036Z,97893.25
2022-12-16T08:54:56.648Z,97904.31
2022-12-16T08:57:23.651Z,97889.53
2022-12-16T08:59:50.263Z,97908.19
2022-12-16T09:02:17.915Z,97912.63
2022-12-16T09:04:44.976Z,97911.09
2022-12-16T09:07:12.106Z,97918.69
2022-12-16T09:09:38.736Z,97925.97
2022-12-16T09:12:05.672Z,97922.94
2022-12-16T09:14:32.294Z,97928.75
2022-12-16T09:16:58.909Z,97915.25
2022-12-16T09:19:26.137Z,97944.84
2022-12-16T09:21:53.171Z,97913.47
2022-12-16T09:24:21.547Z,97941.22
2022-12-16T09:26:48.524Z,97927.34
2022-12-16T09:29:15.201Z,97948.38
2022-12-16T09:31:41.896Z,97947.59
2022-12-16T09:34:08.765Z,97948.41
2022-12-16T09:36:35.434Z,97953.13
2022-12-16T09:39:02.043Z,97950.59
2022-12-16T09:41:42.866Z,97957.81
2022-12-16T09:44:23.828Z,97933.56
2022-12-16T09:47:18.421Z,97965.97
2022-12-16T09:49:50.776Z,97963.06
2022-12-16T09:52:19.262Z,97964.38
2022-12-16T09:54:47.573Z,97939.13
2022-12-16T09:57:15.260Z,97962.31
2022-12-16T09:59:45.570Z,97962.31
2022-12-16T10:02:14.980Z,97945.81
2022-12-16T10:04:43.311Z,97965.28
2022-12-16T10:07:18.928Z,97975.66
2022-12-16T10:10:05.207Z,97970.56
2022-12-16T10:12:52.593Z,97972.34
2022-12-16T10:15:33.982Z,97971.78
2022-12-16T10:18:05.084Z,97985.09
2022-12-16T10:20:43.254Z,97977.16
2022-12-16T10:23:43.105Z,97976.06
2022-12-16T10:26:43.213Z,97922.81
2022-12-16T10:29:22.282Z,97978.16
2022-12-16T10:31:49.090Z,97976.41
2022-12-16T10:34:38.323Z,97973.56
2022-12-16T10:37:09.276Z,97985.50
2022-12-16T10:39:44.707Z,97958.16
2022-12-16T10:42:22.619Z,97970.22
2022-12-16T10:44:55.699Z,97958.50
2022-12-16T10:47:22.864Z,97956.94
2022-12-16T10:49:55.030Z,97983.56
2022-12-16T10:52:22.186Z,97977.97
2022-12-16T10:55:06.890Z,97971.41
2022-12-16T10:58:15.118Z,97983.31
2022-12-16T11:00:49.621Z,97977.09
2022-12-16T11:03:17.788Z,97985.31
2022-12-16T11:05:44.942Z,97967.25
2022-12-16T11:08:24.133Z,97977.41
2022-12-16T11:10:51.181Z,97979.66
2022-12-16T11:13:28.619Z,97990.13
2022-12-16T11:16:07.718Z,97987.81
2022-12-16T11:18:34.872Z,97965.16
2022-12-16T11:21:09.130Z,97986.91
2022-12-16T11:23:37.624Z,97998.66
2022-12-16T11:26:04.415Z,98000.66
2022-12-16T11:28:32.653Z,97996.09
2022-12-16T11:31:13.998Z,97998.38
2022-12-16T11:33:47.363Z,97999.53
2022-12-16T11:36:19.392Z,98005.84
2022-12-16T11:38:48.707Z,98005.63
2022-12-16T11:41:25.118Z,98004.47
2022-12-16T11:43:53.815Z,97998.66
2022-12-16T11:46:28.924Z,97990.66
2022-12-16T11:49:06.749Z,97997.91
2022-12-16T11:51:35.213Z,98019.63
2022-12-16T11:54:10.655Z,98026.91
2022-12-16T11:56:40.851Z,98022.81
2022-12-16T11:59:23.791Z,97966.63
2022-12-16T12:01:59.267Z,98023.13
2022-12-16T12:04:26.147Z,98005.06
2022-12-16T12:07:25.036Z,98020.50
2022-12-16T12:10:06.890Z,97981.19
2022-12-16T12:12:48.977Z,98026.88
2022-12-16T12:15:34.727Z,98025.44
2022-12-16T12:18:39.107Z,98019.31
2022-12-16T12:21:35.126Z,98025.91
2022-12-16T12:24:25.273Z,98026.41
2022-12-16T12:27:16.696Z,98032.31
2022-12-16T12:29:46.091Z,98028.88
2022-12-16T12:32:12.656Z,98033.94
2022-12-16T12:35:02.428Z,98035.13
2022-12-16T12:37:39.563Z,98042.63
2022-12-16T12:40:19.336Z,98040.31
2022-12-16T12:42:51.651Z,98049.69
2022-12-16T12:45:43.059Z,98041.50
2022-12-16T12:48:22.378Z,98047.88
2022-12-16T12:51:18.483Z,98041.88
2022-12-16T12:53:45.118Z,98054.81
2022-12-16T12:56:33.726Z,98053.28
2022-12-16T12:59:08.298Z,98060.56
2022-12-16T13:01:40.435Z,98064.75
2022-12-16T13:04:13.703Z,98061.69
2022-12-16T13:06:41.521Z,98045.97
2022-12-16T13:09:37.869Z,98061.75
2022-12-16T13:12:07.286Z,98068.34
2022-12-16T13:14:33.847Z,98071.16
2022-12-16T13:17:00.783Z,98074.44
2022-12-16T13:19:30.426Z,98073.72
2022-12-16T13:21:57.416Z,98051.16
2022-12-16T13:24:47.035Z,98077.16
2022-12-16T13:27:15.405Z,98060.09
2022-12-16T13:30:01.902Z,98085.25
2022-12-16T13:32:28.787Z,98087.13
2022-12-16T13:35:13.984Z,98095.38
2022-12-16T13:38:10.988Z,98090.09
2022-12-16T13:40:55.781Z,98104.75
2022-12-16T13:43:47.654Z,98097.72
2022-12-16T13:46:16.800Z,98106.06
2022-12-16T13:48:43.541Z,98102.91
2022-12-16T13:51:39.270Z,98107.03
2022-12-16T13:54:07.649Z,98118.31
2022-12-16T13:56:44.156Z,98095.84
2022-12-16T13:59:18.697Z,98113.13
2022-12-16T14:01:56.586Z,98126.06
2022-12-16T14:04:28.271Z,98114.53
2022-12-16T14:07:01.096Z,98131.63
2022-12-16T14:09:37.142Z,98134.19
2022-12-16T14:12:14.535Z,98121.72
2022-12-16T14:14:59.608Z,98123.81
2022-12-16T14:17:35.528Z,98150.88
2022-12-16T14:20:31.691Z,98149.00
2022-12-16T14:23:05.429Z,98145.00
2022-12-16T14:25:32.965Z,98135.34
2022-12-16T14:28:00.951Z,98151.59
2022-12-16T14:30:28.281Z,98142.19
2022-12-16T14:32:54.870Z,98142.19
2022-12-16T14:35:25.750Z,98142.06
2022-12-16T14:37:52.910Z,98153.34
2022-12-16T14:40:30.095Z,98161.22
2022-12-16T14:42:57.034Z,98164.53
2022-12-16T14:45:33.617Z,98161.91
2022-12-16T14:48:00.458Z,98162.97
2022-12-16T14:50:29.723Z,98167.44
2022-12-16T14:53:19.369Z,98170.06
2022-12-16T14:55:46.132Z,98169.69
2022-12-16T14:58:21.502Z,98175.47
2022-12-16T15:00:49.572Z,98172.56
2022-12-16T15:03:24.511Z,98183.94
2022-12-16T15:05:53.167Z,98182.06
2022-12-16T15:08:21.597Z,98144.56
2022-12-16T15:10:48.620Z,98185.69
2022-12-16T15:13:18.184Z,98187.13
2022-12-16T15:15:48.325Z,98134.53
2022-12-16T15:18:44.362Z,98200.31
2022-12-16T15:21:11.273Z,98192.53
2022-12-16T15:23:45.353Z,98179.59
2022-12-16T15:26:23.686Z,98202.41
2022-12-16T15:28:50.692Z,98206.88
2022-12-16T15:31:32.470Z,98197.25
2022-12-16T15:34:38.375Z,98216.31
2022-12-16T15:37:16.044Z,98209.34
2022-12-16T15:39:42.815Z,98232.50
2022-12-16T15:42:24.338Z,98234.16
2022-12-16T15:44:52.303Z,98240.50
2022-12-16T15:47:31.880Z,98236.72
2022-12-16T15:50:07.093Z,98235.44
2022-12-16T15:52:44.719Z,98241.22
2022-12-16T15:55:30.375Z,98254.84
2022-12-16T15:57:57.368Z,98261.91
2022-12-16T16:00:27.072Z,98263.34
2022-12-16T16:02:54.114Z,98268.38
2022-12-16T16:05:23.842Z,98268.03
2022-12-16T16:07:50.619Z,98273.22
2022-12-16T16:10:21.248Z,98276.72
2022-12-16T16:12:47.909Z,98276.97
2022-12-16T16:15:15.007Z,98283.56
2022-12-16T16:17:41.911Z,98258.81
2022-12-16T16:20:14.795Z,98234.81
2022-12-16T16:22:41.521Z,98281.47
2022-12-16T16:25:09.217Z,98244.97
2022-12-16T16:27:35.873Z,98280.88
2022-12-16T16:30:02.706Z,98280.06
2022-12-16T16:32:30.477Z,98281.91
2022-12-16T16:34:57.049Z,98287.09
2022-12-16T16:37:23.823Z,98291.78
2022-12-16T16:39:50.610Z,98295.88
2022-12-16T16:42:18.221Z,98280.72
2022-12-16T16:44:44.796Z,98296.16
2022-12-16T16:47:16.668Z,98303.69
2022-12-16T16:49:46.635Z,98292.72
2022-12-16T16:52:15.811Z,98300.25
2022-12-16T16:54:42.512Z,98300.50
2022-12-16T16:57:10.103Z,98300.63
2022-12-16T16:59:36.830Z,98297.03
2022-12-16T17:02:14.583Z,98283.03
2022-12-16T17:04:41.540Z,98311.06
2022-12-16T17:07:08.199Z,98298.09
2022-12-16T17:09:34.985Z,98308.81
2022-12-16T17:12:01.618Z,98313.88
2022-12-16T17:14:28.332Z,98303.88
2022-12-16T17:16:54.997Z,98320.59
2022-12-16T17:19:23.171Z,98319.06
2022-12-16T17:21:49.931Z,98330.00
2022-12-16T17:24:16.695Z,98321.03
2022-12-16T17:26:44.733Z,98332.38
2022-12-16T17:29:20.587Z,98342.44
2022-12-16T17:31:47.355Z,98353.63
2022-12-16T17:34:14.072Z,98352.47
2022-12-16T17:36:40.795Z,98355.53
2022-12-16T17:39:07.463Z,98352.25
2022-12-16T17:41:34.414Z,98360.91
2022-12-16T17:44:01.096Z,98354.16
2022-12-16T17:46:27.940Z,98346.03
2022-12-16T17:48:56.423Z,98367.16
2022-12-16T17:51:23.128Z,98371.63
2022-12-16T17:53:49.748Z,98373.25
2022-12-16T17:56:16.436Z,98370.56
2022-12-16T17:58:43.163Z,98374.91
2022-12-16T18:01:09.867Z,98371.41
2022-12-16T18:03:36.900Z,98378.13
2022-12-16T18:06:04.189Z,98380.69
2022-12-16T18:08:32.352Z,98379.66
2022-12-16T18:10:59.153Z,98372.00
2022-12-16T18:13:27.283Z,98392.25
2022-12-16T18:15:54.020Z,98382.38
2022-12-16T18:18:20.969Z,98389.91
2022-12-16T18:20:47.917Z,98393.53
2022-12-16T18:23:14.529Z,98392.34
2022-12-16T18:25:41.270Z,98371.50
2022-12-16T18:28:07.921Z,98387.09
2022-12-16T18:30:35.883Z,98392.34
2022-12-16T18:33:02.516Z,98399.31
2022-12-16T18:35:29.230Z,98394.34
2022-12-16T18:37:55.809Z,98397.66
2022-12-16T18:40:22.512Z,98409.31
2022-12-16T18:42:49.369Z,98412.97
2022-12-16T18:45:16.221Z,98415.25
2022-12-16T18:47:42.807Z,98411.97
2022-12-16T18:50:09.852Z,98415.50
2022-12-16T18:52:36.443Z,98408.69
2022-12-16T18:55:03.688Z,98405.22
2022-12-16T18:57:33.908Z,98431.16
2022-12-16T19:00:04.031Z,98413.34
2022-12-16T19:02:30.762Z,98419.78
2022-12-16T19:04:57.709Z,98438.28
2022-12-16T19:07:24.359Z,98441.63
2022-12-16T19:09:51.183Z,98441.53
2022-12-16T19:12:17.889Z,98436.44
2022-12-16T19:14:44.783Z,98447.41
2022-12-16T19:17:11.366Z,98447.84
2022-12-16T19:19:38.262Z,98457.13
2022-12-16T19:22:04.883Z,98461.28
2022-12-16T19:24:31.576Z,98461.59
2022-12-16T19:26:58.270Z,98447.13
2022-12-16T19:29:25.126Z,98457.47
2022-12-16T19:31:51.951Z,98461.81
2022-12-16T19:34:18.704Z,98458.13
2022-12-16T19:36:46.960Z,98467.41
2022-12-16T19:39:14.245Z,98467.94
2022-12-16T19:41:40.914Z,98475.25
2022-12-16T19:44:07.677Z,98481.59
2022-12-16T19:46:34.659Z,98478.63
2022-12-16T19:49:01.371Z,98480.63
2022-12-16T19:51:28.189Z,98486.81
2022-12-16T19:53:56.252Z,98466.06
2022-12-16T19:56:23.822Z,98482.09
2022-12-16T19:58:50.559Z,98491.06
2022-12-16T20:01:18.440Z,98492.94
2022-12-16T20:03:46.014Z,98502.44
2022-12-16T20:06:13.586Z,98501.72
2022-12-16T20:08:40.462Z,98506.19
2022-12-16T20:11:08.134Z,98482.19
2022-12-16T20:13:34.794Z,98499.44
2022-12-16T20:16:04.540Z,98515.56
2022-12-16T20:18:31.485Z,98516.41
2022-12-16T20:21:02.496Z,98512.78
2022-12-16T20:23:29.189Z,98530.88
2022-12-16T20:26:01.572Z,98531.28
2022-12-16T20:28:28.384Z,98480.63
2022-12-16T20:30:56.320Z,98484.97
2022-12-16T20:33:23.366Z,98532.13
2022-12-16T20:36:00.549Z,98490.91
2022-12-16T20:38:27.327Z,98539.22
2022-12-16T20:41:02.057Z,98549.88
2022-12-16T20:43:28.783Z,98554.16
2022-12-16T20:45:56.205Z,98551.06
2022-12-16T20:48:22.909Z,98546.03
2022-12-16T20:50:56.059Z,98554.50
2022-12-16T20:53:23.285Z,98568.59
2022-12-16T20:55:50.003Z,98571.16
2022-12-16T20:58:18.665Z,98578.97
2022-12-16T21:00:45.512Z,98569.59
2022-12-16T21:03:12.340Z,98576.69
2022-12-16T21:05:39.032Z,98581.03
2022-12-16T21:08:05.791Z,98582.91
2022-12-16T21:10:32.693Z,98587.63
2022-12-16T21:13:08.194Z,98593.16
2022-12-16T21:15:34.898Z,98599.66
2022-12-16T21:18:02.139Z,98596.75
2022-12-16T21:20:28.938Z,98602.25
2022-12-16T21:23:06.403Z,98573.09
2022-12-16T21:25:33.763Z,98571.72
2022-12-16T21:28:03.599Z,98622.84
2022-12-16T21:30:30.308Z,98625.50
2022-12-16T21:32:57.358Z,98620.97
2022-12-16T21:35:24.323Z,98630.09
2022-12-16T21:37:53.093Z,98564.84
2022-12-16T21:40:20.357Z,98621.63
2022-12-16T21:42:46.967Z,98642.34
2022-12-16T21:45:13.723Z,98634.16
2022-12-16T21:47:40.951Z,98642.25
2022-12-16T21:50:09.672Z,98648.91
2022-12-16T21:52:36.391Z,98652.56
2022-12-16T21:55:03.206Z,98663.84
2022-12-16T21:57:29.792Z,98667.06
2022-12-16T21:59:56.503Z,98666.25
2022-12-16T22:02:23.503Z,98666.44
2022-12-16T22:04:50.345Z,98674.03
2022-12-16T22:07:17.010Z,98659.66
2022-12-16T22:09:43.792Z,98651.84
2022-12-16T22:12:10.660Z,98681.03
2022-12-16T22:14:37.389Z,98675.34
2022-12-16T22:17:05.716Z,98679.06
2022-12-16T22:19:35.957Z,98680.59
2022-12-16T22:22:03.038Z,98682.31
2022-12-16T22:24:30.272Z,98665.53
2022-12-16T22:26:57.404Z,98684.63
2022-12-16T22:29:24.301Z,98679.06
2022-12-16T22:31:50.925Z,98684.97
2022-12-16T22:34:19.010Z,98681.47
2022-12-16T22:36:46.054Z,98671.59
2022-12-16T22:39:13.394Z,98678.06
2022-12-16T22:41:40.095Z,98600.47
2022-12-16T22:44:31.579Z,98694.38
2022-12-16T22:46:58.485Z,98685.28
2022-12-16T22:49:25.107Z,98687.31
2022-12-16T22:51:51.889Z,98695.16
2022-12-16T22:54:18.523Z,98698.56
2022-12-16T22:56:45.350Z,98695.25
2022-12-16T22:59:11.966Z,98694.13
2022-12-16T23:01:38.702Z,98696.72
2022-12-16T23:04:05.408Z,98692.84
2022-12-16T23:06:32.863Z,98685.81
2022-12-16T23:08:59.454Z,98700.84
2022-12-16T23:11:32.948Z,98704.06
2022-12-16T23:13:59.770Z,98706.13
2022-12-16T23:16:26.452Z,98711.09
2022-12-16T23:18:56.495Z,98689.53
2022-12-16T23:21:23.544Z,98701.69
2022-12-16T23:23:53.309Z,98708.38
2022-12-16T23:26:20.579Z,98714.84
2022-12-16T23:28:55.145Z,98718.91
2022-12-16T23:31:23.525Z,98717.88
2022-12-16T23:33:50.147Z,98725.09
2022-12-16T23:36:16.965Z,98714.59
2022-12-16T23:38:43.799Z,98732.25
2022-12-16T23:41:10.547Z,98734.94
2022-12-16T23:43:41.631Z,98732.19
2022-12-16T23:46:08.819Z,98732.66
2022-12-16T23:48:36.378Z,98739.84
2022-12-16T23:51:03.391Z,98738.53
2022-12-16T23:53:30.059Z,98738.31
2022-12-16T23:55:59.183Z,98741.03
2022-12-16T23:58:25.850Z,98739.81
